Indianapolis, Indiana
Traffic Map
Current Weather Conditions
Indianapolis, Indiana
Overcast Light Rain
Overcast
59°
Feels Like: 59°
Wind Chill: 59° Ceiling: 500
Heat Index: 59° Visibility: 6mi
Dew Point: 57° Wind: 15mph
Humidity: 93% Direction: 130° (SE)
Pressure: 29.82in Gusts: 0mph
Raw Report DataKIND 302154Z 13013KT 6SM -RA BR OVC005 15/14 A2982 RMK AO2 RAB30 SLP098 P0002 T01500139
Traffic Incident Summary
Active as of:
Severity:
Category:
InformationThere was an issue retrieving the traffic information for this location. Please try a different location or try again shortly.
Advertisements
Track Severe Weather on mobile